createdAt,value
2023-02-11T00:01:21.664Z,69.80
2023-02-11T00:03:49.806Z,69.35
2023-02-11T00:06:17.783Z,68.86
2023-02-11T00:08:46.210Z,68.62
2023-02-11T00:11:17.367Z,68.53
2023-02-11T00:13:46.193Z,68.43
2023-02-11T00:16:17.574Z,68.19
2023-02-11T00:18:46.368Z,68.12
2023-02-11T00:21:18.045Z,68.14
2023-02-11T00:23:46.731Z,68.42
2023-02-11T00:26:21.373Z,68.36
2023-02-11T00:28:51.073Z,68.42
2023-02-11T00:31:20.983Z,68.71
2023-02-11T00:33:49.183Z,68.89
2023-02-11T00:36:21.178Z,68.78
2023-02-11T00:38:50.641Z,68.71
2023-02-11T00:41:19.100Z,68.62
2023-02-11T00:43:47.589Z,68.47
2023-02-11T00:46:16.185Z,68.11
2023-02-11T00:48:44.687Z,67.80
2023-02-11T00:51:13.815Z,67.37
2023-02-11T00:53:41.781Z,67.41
2023-02-11T00:56:09.892Z,67.28
2023-02-11T00:58:38.562Z,66.88
2023-02-11T01:01:06.670Z,66.83
2023-02-11T01:03:35.191Z,67.00
2023-02-11T01:06:03.309Z,67.05
2023-02-11T01:08:31.500Z,67.05
2023-02-11T01:11:03.485Z,67.19
2023-02-11T01:13:35.167Z,67.22
2023-02-11T01:16:07.432Z,67.29
2023-02-11T01:18:36.424Z,67.35
2023-02-11T01:21:04.803Z,67.21
2023-02-11T01:23:32.701Z,67.30
2023-02-11T01:26:00.712Z,67.46
2023-02-11T01:28:30.476Z,67.39
2023-02-11T01:31:00.116Z,67.57
2023-02-11T01:33:28.970Z,67.73
2023-02-11T01:36:01.982Z,67.94
2023-02-11T01:38:30.521Z,68.06
2023-02-11T01:41:04.793Z,67.87
2023-02-11T01:43:36.436Z,67.55
2023-02-11T01:46:07.132Z,68.01
2023-02-11T01:48:39.299Z,67.85
2023-02-11T01:51:13.730Z,67.66
2023-02-11T01:54:02.102Z,68.12
2023-02-11T01:56:50.176Z,67.98
2023-02-11T01:59:24.625Z,67.91
2023-02-11T02:01:58.957Z,67.75
2023-02-11T02:04:32.102Z,67.48
2023-02-11T02:07:08.891Z,67.77
2023-02-11T02:09:44.530Z,68.07
2023-02-11T02:12:12.483Z,68.22
2023-02-11T02:14:41.900Z,68.23
2023-02-11T02:17:38.201Z,68.52
2023-02-11T02:20:09.083Z,68.59
2023-02-11T02:23:06.151Z,68.90
2023-02-11T02:25:49.553Z,68.89
2023-02-11T02:29:09.462Z,69.08
2023-02-11T02:32:05.148Z,69.21
2023-02-11T02:34:58.644Z,69.32
2023-02-11T02:37:42.029Z,69.19
2023-02-11T02:40:17.100Z,68.98
2023-02-11T02:42:46.440Z,69.15
2023-02-11T02:45:14.969Z,69.05
2023-02-11T02:47:42.872Z,68.97
2023-02-11T02:50:15.012Z,68.66
2023-02-11T02:53:00.776Z,68.25
2023-02-11T02:56:03.433Z,68.32
2023-02-11T02:59:00.073Z,68.25
2023-02-11T03:01:47.320Z,68.65
2023-02-11T03:04:27.173Z,69.32
2023-02-11T03:07:03.233Z,69.30
2023-02-11T03:09:44.527Z,69.47
2023-02-11T03:12:14.736Z,69.63
2023-02-11T03:14:44.137Z,69.85
2023-02-11T03:17:15.069Z,70.00
2023-02-11T03:19:46.186Z,70.20
2023-02-11T03:22:27.249Z,70.06
2023-02-11T03:24:56.309Z,70.15
2023-02-11T03:27:36.861Z,69.99
2023-02-11T03:30:40.655Z,69.82
2023-02-11T03:33:24.365Z,69.74
2023-02-11T03:36:04.843Z,69.58
2023-02-11T03:38:37.647Z,69.63
2023-02-11T03:41:08.244Z,69.28
2023-02-11T03:43:42.722Z,69.38
2023-02-11T03:46:13.579Z,69.10
2023-02-11T03:48:47.446Z,69.10
2023-02-11T03:51:17.126Z,69.23
2023-02-11T03:53:47.201Z,69.25
2023-02-11T03:56:19.887Z,69.34
2023-02-11T03:58:49.073Z,69.27
2023-02-11T04:01:17.213Z,68.92
2023-02-11T04:03:45.145Z,68.98
2023-02-11T04:06:13.048Z,69.24
2023-02-11T04:08:40.929Z,69.21
2023-02-11T04:11:08.976Z,69.26
2023-02-11T04:13:36.898Z,69.45
2023-02-11T04:16:05.024Z,69.82
2023-02-11T04:18:33.025Z,69.96
2023-02-11T04:21:01.036Z,69.81
2023-02-11T04:23:29.309Z,70.04
2023-02-11T04:25:57.408Z,70.06
2023-02-11T04:28:26.957Z,69.89
2023-02-11T04:30:55.898Z,70.05
2023-02-11T04:33:24.510Z,69.60
2023-02-11T04:35:52.700Z,69.45
2023-02-11T04:38:24.127Z,69.76
2023-02-11T04:40:52.084Z,70.21
2023-02-11T04:43:20.040Z,69.97
2023-02-11T04:45:48.441Z,69.78
2023-02-11T04:48:16.771Z,69.78
2023-02-11T04:50:44.693Z,69.71
2023-02-11T04:53:12.606Z,69.60
2023-02-11T04:55:40.600Z,69.35
2023-02-11T04:58:08.551Z,69.38
2023-02-11T05:00:36.500Z,69.36
2023-02-11T05:03:04.386Z,69.51
2023-02-11T05:05:32.379Z,69.14
2023-02-11T05:08:00.420Z,69.33
2023-02-11T05:10:28.710Z,69.65
2023-02-11T05:12:56.580Z,69.71
2023-02-11T05:15:24.638Z,69.82
2023-02-11T05:17:52.777Z,69.79
2023-02-11T05:20:21.349Z,70.08
2023-02-11T05:22:49.432Z,70.53
2023-02-11T05:25:17.553Z,70.47
2023-02-11T05:27:45.512Z,70.57
2023-02-11T05:30:14.737Z,70.69
2023-02-11T05:32:42.785Z,70.24
2023-02-11T05:35:10.646Z,70.20
2023-02-11T05:37:38.697Z,70.34
2023-02-11T05:40:06.848Z,70.06
2023-02-11T05:42:35.303Z,70.09
2023-02-11T05:45:04.289Z,70.32
2023-02-11T05:47:32.261Z,70.35
2023-02-11T05:50:00.352Z,70.38
2023-02-11T05:52:28.401Z,70.54
2023-02-11T05:54:56.293Z,70.63
2023-02-11T05:57:24.224Z,70.46
2023-02-11T05:59:52.194Z,70.30
2023-02-11T06:02:20.161Z,70.07
2023-02-11T06:04:48.336Z,69.92
2023-02-11T06:07:20.508Z,69.98
2023-02-11T06:09:57.628Z,70.19
2023-02-11T06:12:26.865Z,70.15
2023-02-11T06:14:54.765Z,70.22
2023-02-11T06:17:23.449Z,70.44
2023-02-11T06:19:51.506Z,70.67
2023-02-11T06:22:19.568Z,70.69
2023-02-11T06:25:01.433Z,70.67
2023-02-11T06:27:30.640Z,70.84
2023-02-11T06:30:03.104Z,71.08
2023-02-11T06:32:45.146Z,71.28
2023-02-11T06:35:14.936Z,71.25
2023-02-11T06:37:43.109Z,71.09
2023-02-11T06:40:12.779Z,70.86
2023-02-11T06:42:40.868Z,70.63
2023-02-11T06:45:11.035Z,70.61
2023-02-11T06:47:42.229Z,70.14
2023-02-11T06:50:14.185Z,69.66
2023-02-11T06:52:43.151Z,69.42
2023-02-11T06:55:11.149Z,69.47
2023-02-11T06:57:39.312Z,69.45
2023-02-11T07:00:08.994Z,69.19
2023-02-11T07:02:37.257Z,69.02
2023-02-11T07:05:07.443Z,69.16
2023-02-11T07:07:35.737Z,69.37
2023-02-11T07:10:04.614Z,69.11
2023-02-11T07:12:32.771Z,69.02
2023-02-11T07:15:00.777Z,69.00
2023-02-11T07:17:28.849Z,69.09
2023-02-11T07:19:56.894Z,69.05
2023-02-11T07:22:24.987Z,68.68
2023-02-11T07:24:52.968Z,68.66
2023-02-11T07:27:20.828Z,68.42
2023-02-11T07:29:48.831Z,68.13
2023-02-11T07:32:17.355Z,67.75
2023-02-11T07:34:45.610Z,67.46
2023-02-11T07:37:13.791Z,67.24
2023-02-11T07:39:41.846Z,67.42
2023-02-11T07:42:09.890Z,67.83
2023-02-11T07:44:38.018Z,67.69
2023-02-11T07:47:09.008Z,67.54
2023-02-11T07:49:37.065Z,67.17
2023-02-11T07:52:05.210Z,66.14
2023-02-11T07:54:33.252Z,65.98
2023-02-11T07:57:03.789Z,66.31
2023-02-11T07:59:40.314Z,65.88
2023-02-11T08:02:09.728Z,65.24
2023-02-11T08:04:37.759Z,65.23
2023-02-11T08:07:06.910Z,65.23
2023-02-11T08:09:34.850Z,65.04
2023-02-11T08:12:03.017Z,65.15
2023-02-11T08:14:33.481Z,65.54
2023-02-11T08:17:02.165Z,65.55
2023-02-11T08:19:30.341Z,65.43
2023-02-11T08:21:59.785Z,65.26
2023-02-11T08:24:27.983Z,65.09
2023-02-11T08:26:56.494Z,64.85
2023-02-11T08:29:26.297Z,63.91
2023-02-11T08:31:54.624Z,63.55
2023-02-11T08:34:22.823Z,63.66
2023-02-11T08:36:50.898Z,63.55
2023-02-11T08:39:21.576Z,63.75
2023-02-11T08:41:52.897Z,63.88
2023-02-11T08:44:21.861Z,63.64
2023-02-11T08:46:51.814Z,63.99
2023-02-11T08:49:21.323Z,63.97
2023-02-11T08:51:50.752Z,63.65
2023-02-11T08:54:19.106Z,63.27
2023-02-11T08:56:52.315Z,63.19
2023-02-11T08:59:20.775Z,62.67
2023-02-11T09:01:50.959Z,62.81
2023-02-11T09:04:22.306Z,62.93
2023-02-11T09:06:50.489Z,62.59
2023-02-11T09:09:19.659Z,61.97
2023-02-11T09:11:48.297Z,61.65
2023-02-11T09:14:22.402Z,61.68
2023-02-11T09:17:10.386Z,62.01
2023-02-11T09:19:40.440Z,62.08
2023-02-11T09:22:09.236Z,62.15
2023-02-11T09:24:37.695Z,62.36
2023-02-11T09:27:16.673Z,62.30
2023-02-11T09:29:52.095Z,62.28
2023-02-11T09:32:40.055Z,62.00
2023-02-11T09:35:08.600Z,61.63
2023-02-11T09:37:37.493Z,61.15
2023-02-11T09:40:06.811Z,61.45
2023-02-11T09:43:21.296Z,61.39
2023-02-11T09:46:05.117Z,61.38
2023-02-11T09:48:42.043Z,61.41
2023-02-11T09:51:44.547Z,61.00
2023-02-11T09:54:23.685Z,60.61
2023-02-11T09:56:55.389Z,60.64
2023-02-11T09:59:23.634Z,60.93
2023-02-11T10:01:59.363Z,61.02
2023-02-11T10:04:41.214Z,60.86
2023-02-11T10:07:37.557Z,60.77
2023-02-11T10:10:36.192Z,60.52
2023-02-11T10:13:26.353Z,60.61
2023-02-11T10:16:14.096Z,60.58
2023-02-11T10:19:00.435Z,60.53
2023-02-11T10:21:43.810Z,60.99
2023-02-11T10:24:17.075Z,60.68
2023-02-11T10:26:46.054Z,60.78
2023-02-11T10:29:26.276Z,60.45
2023-02-11T10:31:56.576Z,60.06
2023-02-11T10:34:26.097Z,60.20
2023-02-11T10:36:54.100Z,60.01
2023-02-11T10:39:26.208Z,60.16
2023-02-11T10:42:00.431Z,60.53
2023-02-11T10:44:34.982Z,60.71
2023-02-11T10:47:24.002Z,60.53
2023-02-11T10:49:52.188Z,60.37
2023-02-11T10:52:22.084Z,60.80
2023-02-11T10:54:58.491Z,60.73
2023-02-11T10:57:31.740Z,60.85
2023-02-11T11:00:06.615Z,60.62
2023-02-11T11:02:38.897Z,59.95
2023-02-11T11:05:17.282Z,59.45
2023-02-11T11:08:13.748Z,59.22
2023-02-11T11:10:44.912Z,59.61
2023-02-11T11:13:28.135Z,59.98
2023-02-11T11:16:25.403Z,60.12
2023-02-11T11:19:08.413Z,59.87
2023-02-11T11:21:44.446Z,59.81
2023-02-11T11:24:22.597Z,60.18
2023-02-11T11:26:54.307Z,59.98
2023-02-11T11:29:37.048Z,59.73
2023-02-11T11:32:20.523Z,59.37
2023-02-11T11:34:54.166Z,59.34
2023-02-11T11:37:33.061Z,59.38
2023-02-11T11:40:26.830Z,58.98
2023-02-11T11:43:13.184Z,59.40
2023-02-11T11:46:01.173Z,59.53
2023-02-11T11:48:40.200Z,59.34
2023-02-11T11:51:13.399Z,58.87
2023-02-11T11:53:41.263Z,58.42
2023-02-11T11:56:18.313Z,58.75
2023-02-11T11:58:46.311Z,58.44
2023-02-11T12:01:39.343Z,58.51
2023-02-11T12:04:25.514Z,58.90
2023-02-11T12:06:59.334Z,58.99
2023-02-11T12:09:40.253Z,58.93
2023-02-11T12:12:26.837Z,58.82
2023-02-11T12:15:19.851Z,59.17
2023-02-11T12:18:10.657Z,58.74
2023-02-11T12:21:03.627Z,58.58
2023-02-11T12:23:55.443Z,58.40
2023-02-11T12:26:31.534Z,58.34
2023-02-11T12:29:33.544Z,58.35
2023-02-11T12:32:04.455Z,58.39
2023-02-11T12:34:43.165Z,58.04
2023-02-11T12:37:48.702Z,57.85
2023-02-11T12:40:43.732Z,58.29
2023-02-11T12:43:26.992Z,58.11
2023-02-11T12:46:25.957Z,57.85
2023-02-11T12:49:15.376Z,57.68
2023-02-11T12:51:58.307Z,57.65
2023-02-11T12:54:35.683Z,57.46
2023-02-11T12:57:06.264Z,57.47
2023-02-11T13:00:19.780Z,57.48
2023-02-11T13:03:05.545Z,57.35
2023-02-11T13:05:40.830Z,56.77
2023-02-11T13:08:15.959Z,56.36
2023-02-11T13:10:49.860Z,56.72
2023-02-11T13:13:34.983Z,56.88
2023-02-11T13:16:39.804Z,56.39
2023-02-11T13:19:13.558Z,56.16
2023-02-11T13:22:06.090Z,56.78
2023-02-11T13:24:58.343Z,56.49
2023-02-11T13:27:44.217Z,56.49
2023-02-11T13:30:31.546Z,57.01
2023-02-11T13:33:02.333Z,57.03
2023-02-11T13:35:31.899Z,57.02
2023-02-11T13:38:03.477Z,57.15
2023-02-11T13:40:39.858Z,57.19
2023-02-11T13:43:21.829Z,57.19
2023-02-11T13:45:52.418Z,57.55
2023-02-11T13:48:32.038Z,57.69
2023-02-11T13:51:10.919Z,57.75
2023-02-11T13:53:49.306Z,57.86
2023-02-11T13:56:41.082Z,57.88
2023-02-11T13:59:27.671Z,57.69
2023-02-11T14:02:35.411Z,57.78
2023-02-11T14:05:24.860Z,57.55
2023-02-11T14:08:29.986Z,57.43
2023-02-11T14:10:58.956Z,57.22
2023-02-11T14:13:31.283Z,56.87
2023-02-11T14:16:07.218Z,56.97
2023-02-11T14:18:45.302Z,57.41
2023-02-11T14:21:23.935Z,57.44
2023-02-11T14:23:56.111Z,57.39
2023-02-11T14:26:42.555Z,57.03
2023-02-11T14:29:22.916Z,57.42
2023-02-11T14:31:53.823Z,57.43
2023-02-11T14:34:30.949Z,57.46
2023-02-11T14:37:33.954Z,57.46
2023-02-11T14:40:22.807Z,57.48
2023-02-11T14:42:53.986Z,57.58
2023-02-11T14:45:27.394Z,57.63
2023-02-11T14:48:16.333Z,57.77
2023-02-11T14:50:54.348Z,57.47
2023-02-11T14:53:25.516Z,57.51
2023-02-11T14:55:55.666Z,57.84
2023-02-11T14:58:32.224Z,57.99
2023-02-11T15:01:25.862Z,58.08
2023-02-11T15:03:56.841Z,58.12
2023-02-11T15:06:38.293Z,57.79
2023-02-11T15:09:29.434Z,57.97
2023-02-11T15:11:57.799Z,58.25
2023-02-11T15:14:33.104Z,58.21
2023-02-11T15:17:08.211Z,58.43
2023-02-11T15:19:41.285Z,58.40
2023-02-11T15:22:33.010Z,58.16
2023-02-11T15:25:07.489Z,58.06
2023-02-11T15:27:40.230Z,58.13
2023-02-11T15:30:31.030Z,58.70
2023-02-11T15:33:03.045Z,59.12
2023-02-11T15:35:40.934Z,59.25
2023-02-11T15:38:12.897Z,59.47
2023-02-11T15:40:40.931Z,59.45
2023-02-11T15:43:10.714Z,59.37
2023-02-11T15:46:01.408Z,59.26
2023-02-11T15:48:42.393Z,59.64
2023-02-11T15:51:38.769Z,59.55
2023-02-11T15:54:18.562Z,59.65
2023-02-11T15:56:50.844Z,60.04
2023-02-11T15:59:39.327Z,60.24
2023-02-11T16:02:16.167Z,60.40
2023-02-11T16:05:17.311Z,60.50
2023-02-11T16:07:50.704Z,60.40
2023-02-11T16:10:20.798Z,60.46
2023-02-11T16:13:12.059Z,60.99
2023-02-11T16:15:46.943Z,61.59
2023-02-11T16:18:38.254Z,61.73
2023-02-11T16:21:16.070Z,62.06
2023-02-11T16:23:51.644Z,62.06
2023-02-11T16:26:52.975Z,62.04
2023-02-11T16:29:26.342Z,62.17
2023-02-11T16:32:07.181Z,62.39
2023-02-11T16:34:35.465Z,62.60
2023-02-11T16:37:08.110Z,62.73
2023-02-11T16:39:38.904Z,63.03
2023-02-11T16:42:08.304Z,63.19
2023-02-11T16:44:36.398Z,63.04
2023-02-11T16:47:08.092Z,63.28
2023-02-11T16:49:40.683Z,63.23
2023-02-11T16:52:13.818Z,63.33
2023-02-11T16:54:41.985Z,63.46
2023-02-11T16:57:21.934Z,63.58
2023-02-11T16:59:50.424Z,63.20
2023-02-11T17:02:18.324Z,62.93
2023-02-11T17:04:47.048Z,62.90
2023-02-11T17:07:15.158Z,62.91
2023-02-11T17:09:43.115Z,63.47
2023-02-11T17:12:11.031Z,64.18
2023-02-11T17:14:39.045Z,64.38
2023-02-11T17:17:08.072Z,64.33
2023-02-11T17:19:36.871Z,64.50
2023-02-11T17:22:05.547Z,64.64
2023-02-11T17:24:33.558Z,64.74
2023-02-11T17:27:01.528Z,64.66
2023-02-11T17:29:29.661Z,64.47
2023-02-11T17:32:02.837Z,64.52
2023-02-11T17:34:32.447Z,64.70
2023-02-11T17:37:01.520Z,64.67
2023-02-11T17:39:29.482Z,64.74
2023-02-11T17:41:57.491Z,64.79
2023-02-11T17:44:25.566Z,64.84
2023-02-11T17:46:56.256Z,64.57
2023-02-11T17:49:24.435Z,64.50
2023-02-11T17:51:52.409Z,64.79
2023-02-11T17:54:20.784Z,65.24
2023-02-11T17:56:50.856Z,65.32
2023-02-11T17:59:19.818Z,65.48
2023-02-11T18:01:48.512Z,65.91
2023-02-11T18:04:19.320Z,65.93
2023-02-11T18:09:40.640Z,65.98
2023-02-11T18:12:09.588Z,66.19
2023-02-11T18:14:41.683Z,66.36
2023-02-11T18:17:10.010Z,66.65
2023-02-11T18:19:38.268Z,66.78
2023-02-11T18:22:06.722Z,67.07
2023-02-11T18:24:35.031Z,67.00
2023-02-11T18:27:03.337Z,67.07
2023-02-11T18:29:31.608Z,67.07
2023-02-11T18:31:59.775Z,66.77
2023-02-11T18:34:31.731Z,66.85
2023-02-11T18:37:04.149Z,67.12
2023-02-11T18:39:42.906Z,67.31
2023-02-11T18:42:11.149Z,67.41
2023-02-11T18:44:39.640Z,67.52
2023-02-11T18:47:07.773Z,67.64
2023-02-11T18:49:36.392Z,67.73
2023-02-11T18:52:05.899Z,67.27
2023-02-11T18:54:36.060Z,66.93
2023-02-11T18:57:04.310Z,66.71
2023-02-11T18:59:32.455Z,66.90
2023-02-11T19:02:00.796Z,66.77
2023-02-11T19:04:29.249Z,66.89
2023-02-11T19:06:57.354Z,67.04
2023-02-11T19:09:25.466Z,67.01
2023-02-11T19:11:54.587Z,67.04
2023-02-11T19:14:26.260Z,66.90
2023-02-11T19:16:57.368Z,67.01
2023-02-11T19:19:28.812Z,67.11
2023-02-11T19:21:58.304Z,67.26
2023-02-11T19:24:29.596Z,67.22
2023-02-11T19:27:01.172Z,67.19
2023-02-11T19:29:32.532Z,67.37
2023-02-11T19:32:01.537Z,67.31
2023-02-11T19:34:29.732Z,67.30
2023-02-11T19:37:00.929Z,67.32
2023-02-11T19:39:35.451Z,67.27
2023-02-11T19:42:06.588Z,67.37
2023-02-11T19:44:34.723Z,67.19
2023-02-11T19:47:03.334Z,67.00
2023-02-11T19:49:34.273Z,67.06
2023-02-11T19:52:02.611Z,67.07
2023-02-11T19:54:44.672Z,66.95
2023-02-11T19:57:23.746Z,67.24
2023-02-11T19:59:55.088Z,67.45
2023-02-11T20:02:31.978Z,67.09
2023-02-11T20:05:00.435Z,67.35
2023-02-11T20:07:31.536Z,67.39
2023-02-11T20:10:00.187Z,67.31
2023-02-11T20:12:29.304Z,67.65
2023-02-11T20:14:57.897Z,68.04
2023-02-11T20:17:26.235Z,67.93
2023-02-11T20:19:54.243Z,67.89
2023-02-11T20:22:22.230Z,67.77
2023-02-11T20:24:50.264Z,67.67
2023-02-11T20:27:20.067Z,67.86
2023-02-11T20:29:48.280Z,67.66
2023-02-11T20:32:16.302Z,67.11
2023-02-11T20:34:44.588Z,67.43
2023-02-11T20:37:12.776Z,67.41
2023-02-11T20:39:44.817Z,67.41
2023-02-11T20:42:15.170Z,67.67
2023-02-11T20:44:43.313Z,67.50
2023-02-11T20:47:12.341Z,67.31
2023-02-11T20:49:40.405Z,67.39
2023-02-11T20:52:08.700Z,67.44
2023-02-11T20:54:39.127Z,67.57
2023-02-11T20:57:17.740Z,67.85
2023-02-11T20:59:49.170Z,67.91
2023-02-11T21:02:21.871Z,67.70
2023-02-11T21:04:51.663Z,67.66
2023-02-11T21:07:20.087Z,67.89
2023-02-11T21:10:02.361Z,68.13
2023-02-11T21:12:30.728Z,68.39
2023-02-11T21:14:59.260Z,68.13
2023-02-11T21:17:27.627Z,68.31
2023-02-11T21:19:55.675Z,68.51
2023-02-11T21:22:24.248Z,68.34
2023-02-11T21:24:52.675Z,68.20
2023-02-11T21:27:21.429Z,67.63
2023-02-11T21:29:54.422Z,67.66
2023-02-11T21:32:22.997Z,67.55
2023-02-11T21:34:54.324Z,67.25
2023-02-11T21:37:23.597Z,67.70
2023-02-11T21:39:51.516Z,68.02
2023-02-11T21:42:19.467Z,68.01
2023-02-11T21:44:47.524Z,68.44
2023-02-11T21:47:15.865Z,68.88
2023-02-11T21:49:44.135Z,68.73
2023-02-11T21:52:12.062Z,68.40
2023-02-11T21:54:39.993Z,68.18
2023-02-11T21:57:08.000Z,68.28
2023-02-11T21:59:36.410Z,68.37
2023-02-11T22:02:04.520Z,68.38
2023-02-11T22:04:33.587Z,68.69
2023-02-11T22:07:03.087Z,68.60
2023-02-11T22:09:31.035Z,68.86
2023-02-11T22:12:01.923Z,68.87
2023-02-11T22:14:32.422Z,68.72
2023-02-11T22:17:00.492Z,68.69
2023-02-11T22:19:28.545Z,68.82
2023-02-11T22:21:56.509Z,68.50
2023-02-11T22:24:26.622Z,68.54
2023-02-11T22:26:54.624Z,68.54
2023-02-11T22:29:22.975Z,68.42
2023-02-11T22:31:51.016Z,68.39
2023-02-11T22:34:18.999Z,68.33
2023-02-11T22:36:47.083Z,68.50
2023-02-11T22:39:17.652Z,68.52
2023-02-11T22:41:47.363Z,68.60
2023-02-11T22:44:17.268Z,68.55
2023-02-11T22:46:54.122Z,68.56
2023-02-11T22:49:22.206Z,68.53
2023-02-11T22:52:03.163Z,68.50
2023-02-11T22:54:31.757Z,68.72
2023-02-11T22:57:00.264Z,68.79
2023-02-11T22:59:28.369Z,68.78
2023-02-11T23:01:56.433Z,68.86
2023-02-11T23:04:24.541Z,68.90
2023-02-11T23:06:52.670Z,69.03
2023-02-11T23:09:20.594Z,69.06
2023-02-11T23:11:49.487Z,69.03
2023-02-11T23:14:17.398Z,68.82
2023-02-11T23:16:45.456Z,68.74
2023-02-11T23:19:13.581Z,68.75
2023-02-11T23:21:41.689Z,69.05
2023-02-11T23:24:15.619Z,69.32
2023-02-11T23:26:43.848Z,69.39
2023-02-11T23:29:12.516Z,69.54
2023-02-11T23:31:44.220Z,69.46
2023-02-11T23:34:17.139Z,69.55
2023-02-11T23:36:45.199Z,69.60
2023-02-11T23:39:15.988Z,69.51
2023-02-11T23:41:45.418Z,69.56
2023-02-11T23:44:13.455Z,69.72
2023-02-11T23:46:41.630Z,69.85
2023-02-11T23:49:09.997Z,69.73
2023-02-11T23:51:37.905Z,69.73
2023-02-11T23:54:05.840Z,69.95
2023-02-11T23:56:33.836Z,69.99
2023-02-11T23:59:01.679Z,69.93
